Aeroporto :
LOGIN :

Iscrizione | Disclaimer

   EN    FR    IT 

 










Sommario :    VFR   VFR Marginale   IFR   IFR Intensivo   IFR Molto Intensivo
Visibilità : 
Base nubi : 
>= 8 km
>= 3000ft
5 / 8 km
1000 / 3000 ft
1500m / 5 km
500 / 1000 ft
800 / 1500m
200 / 500 ft
< 800m
< 200 ft
Simboli :   Temporali  Nebbia  Neve Forte  Precipitazioni Forti  Vento > 20 kt
SIGMETs :   Varie  Temporali  Ghiacco  Turbolenza  Onda orograficha  Ceneri Vulcaniche







- Altitudine del aeroporto : 1674 ft
- Codice IATA : BRN


LSZB - Bern Belp

ULTIMO METAR :
  • 170920Z VRB03KT 9999 FEW030 21/14 Q1018 NOSIG

METARs OBSOLETI :
  • 170850Z VRB03KT 9999 FEW025 20/14 Q1018 NOSIG
  • 170820Z VRB02KT 9999 FEW025 19/14 Q1019 NOSIG
  • 170750Z VRB02KT 9999 FEW020 SCT220 18/14 Q1019 NOSIG
  • 170720Z VRB01KT CAVOK 17/13 Q1019 NOSIG
  • 170650Z VRB01KT CAVOK 16/13 Q1019 NOSIG

TAF TAF LSZB
Valido dal 17 a 09 ore il 17 a 18 ore UTC


170825Z 1709/1718 VRB03KT 9999 FEW025
ATIS : +41 22 417 40 76
Nessun NOTAM noto per questo aeroporto.



MetMap, La meteo Aeronautica in un colpo d'occhio ! - Copyright ORBIFLY Dicembre 2007 - Disclaimer

ORBIFLY MET'MAP TEAM :

Programmazione e sviluppo : Alexandra Zaïnal
Concezione e sviluppo : Baudouin d'Aumeries
Co-Programmazione e sviluppo : Marc-Olivier Méhu
Supporto tecnico e logistico : Manuel Goepfert
Aiuto per la traduzione : Arnaldo La Scala

Contatto : metmap@orbifly.com




FONTI E CREDITI :

   NOAA